createdAt,value
2018-11-07T00:00:58.620Z,1006.22
2018-11-07T00:02:51.569Z,1006.26
2018-11-07T00:03:51.457Z,1006.24
2018-11-07T00:05:43.541Z,1006.32
2018-11-07T00:06:43.267Z,1006.27
2018-11-07T00:08:35.163Z,1006.26
2018-11-07T00:09:35.062Z,1006.27
2018-11-07T00:11:26.957Z,1006.28
2018-11-07T00:12:26.833Z,1006.26
2018-11-07T00:14:19.697Z,1006.28
2018-11-07T00:15:19.614Z,1006.28
2018-11-07T00:17:11.539Z,1006.24
2018-11-07T00:18:11.438Z,1006.27
2018-11-07T00:20:03.334Z,1006.27
2018-11-07T00:21:03.148Z,1006.28
2018-11-07T00:22:55.189Z,1006.24
2018-11-07T00:23:55.168Z,1006.25
2018-11-07T00:25:47.095Z,1006.27
2018-11-07T00:26:46.825Z,1006.33
2018-11-07T00:28:38.687Z,1006.37
2018-11-07T00:29:38.597Z,1006.40
2018-11-07T00:31:30.645Z,1006.41
2018-11-07T00:32:30.469Z,1006.36
2018-11-07T00:34:22.249Z,1006.38
2018-11-07T00:35:22.214Z,1006.38
2018-11-07T00:37:15.190Z,1006.36
2018-11-07T00:38:15.005Z,1006.38
2018-11-07T00:40:07.051Z,1006.38
2018-11-07T00:41:07.058Z,1006.36
2018-11-07T00:42:58.836Z,1006.34
2018-11-07T00:43:58.877Z,1006.34
2018-11-07T00:45:50.562Z,1006.32
2018-11-07T00:46:50.504Z,1006.30
2018-11-07T00:48:42.499Z,1006.29
2018-11-07T00:49:42.290Z,1006.29
2018-11-07T00:51:34.425Z,1006.31
2018-11-07T00:52:34.331Z,1006.28
2018-11-07T00:54:26.310Z,1006.33
2018-11-07T00:55:26.261Z,1006.30
2018-11-07T00:57:18.092Z,1006.30
2018-11-07T00:58:18.038Z,1006.30
2018-11-07T01:00:09.862Z,1006.32
2018-11-07T01:01:09.748Z,1006.33
2018-11-07T01:03:01.751Z,1006.33
2018-11-07T01:04:01.592Z,1006.29
2018-11-07T01:05:53.511Z,1006.31
2018-11-07T01:06:53.442Z,1006.34
2018-11-07T01:08:46.239Z,1006.30
2018-11-07T01:09:46.293Z,1006.29
2018-11-07T01:11:38.084Z,1006.27
2018-11-07T01:12:38.129Z,1006.24
2018-11-07T01:14:30.795Z,1006.24
2018-11-07T01:15:30.685Z,1006.26
2018-11-07T01:17:23.501Z,1006.29
2018-11-07T01:18:23.429Z,1006.31
2018-11-07T01:20:16.236Z,1006.32
2018-11-07T01:21:16.105Z,1006.35
2018-11-07T01:23:09.161Z,1006.37
2018-11-07T01:24:08.978Z,1006.36
2018-11-07T01:26:00.888Z,1006.36
2018-11-07T01:27:00.788Z,1006.35
2018-11-07T01:28:52.769Z,1006.29
2018-11-07T01:29:52.728Z,1006.27
2018-11-07T01:31:44.762Z,1006.28
2018-11-07T01:32:44.542Z,1006.34
2018-11-07T01:34:36.301Z,1006.30
2018-11-07T01:35:36.266Z,1006.30
2018-11-07T01:37:28.092Z,1006.30
2018-11-07T01:38:28.007Z,1006.30
2018-11-07T01:40:19.963Z,1006.17
2018-11-07T01:41:19.826Z,1006.13
2018-11-07T01:43:11.729Z,1006.10
2018-11-07T01:44:11.654Z,1006.08
2018-11-07T01:46:03.618Z,1006.06
2018-11-07T01:47:03.841Z,1006.05
2018-11-07T01:48:55.878Z,1005.98
2018-11-07T01:49:55.407Z,1005.96
2018-11-07T01:51:47.412Z,1005.98
2018-11-07T01:52:47.309Z,1005.91
2018-11-07T01:54:39.454Z,1005.89
2018-11-07T01:55:39.260Z,1005.86
2018-11-07T01:57:31.132Z,1005.83
2018-11-07T01:58:31.057Z,1005.83
2018-11-07T02:00:22.925Z,1005.79
2018-11-07T02:01:22.891Z,1005.79
2018-11-07T02:03:14.756Z,1005.78
2018-11-07T02:04:14.631Z,1005.77
2018-11-07T02:06:07.536Z,1005.76
2018-11-07T02:07:07.461Z,1005.74
2018-11-07T02:08:59.234Z,1005.70
2018-11-07T02:09:59.121Z,1005.70
2018-11-07T02:11:51.095Z,1005.68
2018-11-07T02:12:51.005Z,1005.71
2018-11-07T02:14:42.894Z,1005.74
2018-11-07T02:15:42.835Z,1005.79
2018-11-07T02:17:34.729Z,1005.80
2018-11-07T02:18:34.599Z,1005.80
2018-11-07T02:20:26.688Z,1005.76
2018-11-07T02:21:26.451Z,1005.77
2018-11-07T02:23:18.669Z,1005.78
2018-11-07T02:24:18.132Z,1005.77
2018-11-07T02:26:10.108Z,1005.80
2018-11-07T02:27:09.922Z,1005.78
2018-11-07T02:29:03.019Z,1005.77
2018-11-07T02:30:02.992Z,1005.74
2018-11-07T02:31:54.889Z,1005.69
2018-11-07T02:32:54.722Z,1005.74
2018-11-07T02:34:46.652Z,1005.72
2018-11-07T02:35:46.727Z,1005.76
2018-11-07T02:37:38.468Z,1005.75
2018-11-07T02:38:38.459Z,1005.68
2018-11-07T02:40:31.338Z,1005.67
2018-11-07T02:41:31.184Z,1005.70
2018-11-07T02:43:23.308Z,1005.72
2018-11-07T02:44:23.162Z,1005.68
2018-11-07T02:46:14.888Z,1005.70
2018-11-07T02:47:14.902Z,1005.64
2018-11-07T02:49:06.687Z,1005.74
2018-11-07T02:50:06.630Z,1005.67
2018-11-07T02:51:58.573Z,1005.68
2018-11-07T02:52:58.406Z,1005.64
2018-11-07T02:54:50.299Z,1005.64
2018-11-07T02:55:50.180Z,1005.65
2018-11-07T02:57:42.160Z,1005.73
2018-11-07T02:58:42.115Z,1005.76
2018-11-07T03:00:33.935Z,1005.73
2018-11-07T03:01:33.827Z,1005.74
2018-11-07T03:03:25.892Z,1005.71
2018-11-07T03:04:25.686Z,1005.71
2018-11-07T03:06:18.512Z,1005.76
2018-11-07T03:07:18.537Z,1005.75
2018-11-07T03:09:10.531Z,1005.73
2018-11-07T03:10:10.377Z,1005.74
2018-11-07T03:12:03.258Z,1005.79
2018-11-07T03:13:03.122Z,1005.73
2018-11-07T03:14:55.062Z,1005.72
2018-11-07T03:15:54.991Z,1005.72
2018-11-07T03:17:46.869Z,1005.71
2018-11-07T03:18:46.843Z,1005.65
2018-11-07T03:20:38.874Z,1005.69
2018-11-07T03:21:38.653Z,1005.64
2018-11-07T03:23:31.062Z,1005.64
2018-11-07T03:24:30.516Z,1005.62
2018-11-07T03:26:22.461Z,1005.55
2018-11-07T03:27:22.343Z,1005.62
2018-11-07T03:29:14.323Z,1005.65
2018-11-07T03:30:14.224Z,1005.67
2018-11-07T03:32:06.735Z,1005.66
2018-11-07T03:33:06.019Z,1005.64
2018-11-07T03:34:58.108Z,1005.62
2018-11-07T03:35:57.942Z,1005.57
2018-11-07T03:37:49.997Z,1005.69
2018-11-07T03:38:49.915Z,1005.71
2018-11-07T03:40:41.793Z,1005.66
2018-11-07T03:41:41.739Z,1005.66
2018-11-07T03:43:33.840Z,1005.67
2018-11-07T03:44:33.617Z,1005.68
2018-11-07T03:46:25.415Z,1005.68
2018-11-07T03:47:25.377Z,1005.66
2018-11-07T03:49:17.364Z,1005.65
2018-11-07T03:50:17.214Z,1005.64
2018-11-07T03:52:09.096Z,1005.61
2018-11-07T03:53:09.012Z,1005.64
2018-11-07T03:55:00.873Z,1005.61
2018-11-07T03:56:00.743Z,1005.59
2018-11-07T03:57:52.797Z,1005.62
2018-11-07T03:58:52.719Z,1005.58
2018-11-07T04:00:44.687Z,1005.64
2018-11-07T04:01:44.865Z,1005.63
2018-11-07T04:03:36.584Z,1005.64
2018-11-07T04:04:36.469Z,1005.65
2018-11-07T04:06:28.248Z,1005.65
2018-11-07T04:07:28.156Z,1005.64
2018-11-07T04:09:20.083Z,1005.69
2018-11-07T04:10:19.970Z,1005.68
2018-11-07T04:12:11.914Z,1005.75
2018-11-07T04:13:11.816Z,1005.71
2018-11-07T04:15:03.759Z,1005.73
2018-11-07T04:16:03.658Z,1005.71
2018-11-07T04:17:55.661Z,1005.72
2018-11-07T04:18:55.645Z,1005.70
2018-11-07T04:20:47.728Z,1005.70
2018-11-07T04:21:47.630Z,1005.70
2018-11-07T04:23:39.734Z,1005.71
2018-11-07T04:24:39.561Z,1005.70
2018-11-07T04:26:31.618Z,1005.68
2018-11-07T04:27:31.568Z,1005.69
2018-11-07T04:29:23.453Z,1005.69
2018-11-07T04:30:23.391Z,1005.67
2018-11-07T04:32:15.792Z,1005.68
2018-11-07T04:33:15.179Z,1005.69
2018-11-07T04:35:07.051Z,1005.74
2018-11-07T04:36:06.947Z,1005.72
2018-11-07T04:37:58.907Z,1005.69
2018-11-07T04:38:58.837Z,1005.69
2018-11-07T04:40:51.733Z,1005.64
2018-11-07T04:41:51.528Z,1005.66
2018-11-07T04:43:43.703Z,1005.61
2018-11-07T04:44:43.710Z,1005.62
2018-11-07T04:46:35.469Z,1005.59
2018-11-07T04:47:35.308Z,1005.62
2018-11-07T04:49:28.191Z,1005.67
2018-11-07T04:50:28.128Z,1005.61
2018-11-07T04:52:19.935Z,1005.58
2018-11-07T04:53:19.857Z,1005.64
2018-11-07T04:55:12.701Z,1005.62
2018-11-07T04:56:12.612Z,1005.64
2018-11-07T04:58:05.462Z,1005.60
2018-11-07T04:59:05.437Z,1005.64
2018-11-07T05:00:57.356Z,1005.65
2018-11-07T05:01:57.114Z,1005.72
2018-11-07T05:03:49.165Z,1005.69
2018-11-07T05:04:48.976Z,1005.74
2018-11-07T05:06:40.833Z,1005.76
2018-11-07T05:07:40.850Z,1005.77
2018-11-07T05:09:32.778Z,1005.69
2018-11-07T05:10:32.739Z,1005.71
2018-11-07T05:12:24.717Z,1005.71
2018-11-07T05:13:24.615Z,1005.67
2018-11-07T05:15:16.754Z,1005.72
2018-11-07T05:16:16.544Z,1005.73
2018-11-07T05:18:08.483Z,1005.77
2018-11-07T05:19:08.340Z,1005.74
2018-11-07T05:21:00.439Z,1005.77
2018-11-07T05:22:00.348Z,1005.80
2018-11-07T05:23:53.315Z,1005.85
2018-11-07T05:24:53.112Z,1005.82
2018-11-07T05:26:45.052Z,1005.85
2018-11-07T05:27:45.036Z,1005.85
2018-11-07T05:29:36.814Z,1005.85
2018-11-07T05:30:36.704Z,1005.84
2018-11-07T05:32:28.599Z,1005.82
2018-11-07T05:33:28.534Z,1005.82
2018-11-07T05:35:20.402Z,1005.84
2018-11-07T05:36:20.265Z,1005.85
2018-11-07T05:38:12.283Z,1005.80
2018-11-07T05:39:12.123Z,1005.81
2018-11-07T05:41:04.048Z,1005.83
2018-11-07T05:42:04.021Z,1005.82
2018-11-07T05:43:57.032Z,1005.88
2018-11-07T05:44:56.790Z,1005.89
2018-11-07T05:46:48.704Z,1005.92
2018-11-07T05:47:48.706Z,1005.93
2018-11-07T05:49:40.573Z,1005.93
2018-11-07T05:50:40.524Z,1005.93
2018-11-07T05:52:32.294Z,1005.92
2018-11-07T05:53:32.292Z,1005.98
2018-11-07T05:55:24.182Z,1005.99
2018-11-07T05:56:24.099Z,1006.01
2018-11-07T05:58:16.149Z,1006.02
2018-11-07T05:59:16.051Z,1006.03
2018-11-07T06:01:09.074Z,1006.03
2018-11-07T06:02:08.977Z,1006.04
2018-11-07T06:04:00.941Z,1006.07
2018-11-07T06:05:00.820Z,1006.06
2018-11-07T06:06:52.760Z,1006.09
2018-11-07T06:07:52.602Z,1006.09
2018-11-07T06:09:45.643Z,1006.09
2018-11-07T06:10:45.450Z,1006.09
2018-11-07T06:12:38.307Z,1006.09
2018-11-07T06:13:38.180Z,1006.10
2018-11-07T06:15:31.163Z,1006.13
2018-11-07T06:16:31.115Z,1006.13
2018-11-07T06:18:22.911Z,1006.13
2018-11-07T06:19:22.856Z,1006.15
2018-11-07T06:21:14.930Z,1006.20
2018-11-07T06:22:14.867Z,1006.21
2018-11-07T06:24:06.852Z,1006.21
2018-11-07T06:25:06.784Z,1006.17
2018-11-07T06:26:58.730Z,1006.20
2018-11-07T06:27:58.704Z,1006.17
2018-11-07T06:29:50.563Z,1006.22
2018-11-07T06:30:50.468Z,1006.24
2018-11-07T06:32:43.393Z,1006.27
2018-11-07T06:33:43.213Z,1006.26
2018-11-07T06:35:36.162Z,1006.30
2018-11-07T06:36:36.188Z,1006.29
2018-11-07T06:38:28.909Z,1006.26
2018-11-07T06:39:28.845Z,1006.28
2018-11-07T06:41:21.765Z,1006.29
2018-11-07T06:42:21.689Z,1006.27
2018-11-07T06:44:13.582Z,1006.31
2018-11-07T06:45:13.442Z,1006.32
2018-11-07T06:47:05.191Z,1006.33
2018-11-07T06:48:05.120Z,1006.33
2018-11-07T06:49:57.048Z,1006.39
2018-11-07T06:50:56.927Z,1006.37
2018-11-07T06:52:49.053Z,1006.40
2018-11-07T06:53:48.848Z,1006.41
2018-11-07T06:55:40.888Z,1006.39
2018-11-07T06:56:40.706Z,1006.44
2018-11-07T06:58:33.714Z,1006.48
2018-11-07T06:59:33.585Z,1006.46
2018-11-07T07:01:25.828Z,1006.44
2018-11-07T07:02:25.608Z,1006.47
2018-11-07T07:04:17.690Z,1006.46
2018-11-07T07:05:17.411Z,1006.44
2018-11-07T07:07:09.313Z,1006.49
2018-11-07T07:08:09.131Z,1006.45
2018-11-07T07:10:01.432Z,1006.45
2018-11-07T07:11:01.484Z,1006.48
2018-11-07T07:12:54.235Z,1006.50
2018-11-07T07:13:54.286Z,1006.50
2018-11-07T07:15:47.025Z,1006.47
2018-11-07T07:16:46.883Z,1006.54
2018-11-07T07:18:38.898Z,1006.50
2018-11-07T07:19:38.805Z,1006.53
2018-11-07T07:21:30.722Z,1006.46
2018-11-07T07:22:30.557Z,1006.52
2018-11-07T07:24:22.558Z,1006.53
2018-11-07T07:25:22.458Z,1006.59
2018-11-07T07:27:15.349Z,1006.61
2018-11-07T07:28:15.238Z,1006.62
2018-11-07T07:30:08.179Z,1006.67
2018-11-07T07:31:08.194Z,1006.66
2018-11-07T07:33:00.062Z,1006.68
2018-11-07T07:33:59.999Z,1006.62
2018-11-07T07:35:51.838Z,1006.62
2018-11-07T07:36:51.785Z,1006.65
2018-11-07T07:38:44.639Z,1006.67
2018-11-07T07:39:44.466Z,1006.68
2018-11-07T07:41:37.433Z,1006.67
2018-11-07T07:42:37.255Z,1006.69
2018-11-07T07:44:30.117Z,1006.76
2018-11-07T07:45:30.111Z,1006.71
2018-11-07T07:47:21.903Z,1006.73
2018-11-07T07:48:21.799Z,1006.82
2018-11-07T07:50:14.705Z,1006.78
2018-11-07T07:51:14.601Z,1006.80
2018-11-07T07:53:06.448Z,1006.78
2018-11-07T07:54:06.426Z,1006.83
2018-11-07T07:55:59.462Z,1006.79
2018-11-07T07:56:59.358Z,1006.76
2018-11-07T07:58:51.201Z,1006.76
2018-11-07T07:59:51.116Z,1006.76
2018-11-07T08:01:44.206Z,1006.77
2018-11-07T08:02:43.921Z,1006.79
2018-11-07T08:04:36.811Z,1006.82
2018-11-07T08:05:36.726Z,1006.86
2018-11-07T08:07:29.597Z,1006.87
2018-11-07T08:08:29.532Z,1006.83
2018-11-07T08:10:21.502Z,1006.84
2018-11-07T08:11:21.377Z,1006.81
2018-11-07T08:13:13.252Z,1006.73
2018-11-07T08:14:13.152Z,1006.73
2018-11-07T08:16:05.212Z,1006.80
2018-11-07T08:17:05.045Z,1006.81
2018-11-07T08:18:57.006Z,1006.84
2018-11-07T08:19:56.947Z,1006.86
2018-11-07T08:21:48.906Z,1006.87
2018-11-07T08:22:48.812Z,1006.91
2018-11-07T08:24:40.795Z,1006.86
2018-11-07T08:25:40.755Z,1006.83
2018-11-07T08:27:33.645Z,1006.87
2018-11-07T08:28:33.562Z,1006.85
2018-11-07T08:30:25.692Z,1006.80
2018-11-07T08:31:25.570Z,1006.85
2018-11-07T08:33:17.384Z,1006.88
2018-11-07T08:34:17.391Z,1006.88
2018-11-07T08:36:09.331Z,1006.89
2018-11-07T08:37:09.233Z,1006.91
2018-11-07T08:39:01.175Z,1006.95
2018-11-07T08:40:00.986Z,1006.97
2018-11-07T08:41:54.090Z,1007.00
2018-11-07T08:42:53.896Z,1007.00
2018-11-07T08:44:45.748Z,1007.09
2018-11-07T08:45:45.725Z,1007.09
2018-11-07T08:47:37.647Z,1007.10
2018-11-07T08:48:37.594Z,1007.17
2018-11-07T08:50:29.527Z,1007.12
2018-11-07T08:51:29.466Z,1007.15
2018-11-07T08:53:21.316Z,1007.17
2018-11-07T08:54:21.223Z,1007.16
2018-11-07T08:56:13.084Z,1007.17
2018-11-07T08:57:12.987Z,1007.20
2018-11-07T08:59:04.937Z,1007.28
2018-11-07T09:00:04.839Z,1007.28
2018-11-07T09:01:56.785Z,1007.28
2018-11-07T09:02:56.691Z,1007.33
2018-11-07T09:04:48.637Z,1007.29
2018-11-07T09:05:48.508Z,1007.32
2018-11-07T09:07:40.656Z,1007.26
2018-11-07T09:08:40.536Z,1007.23
2018-11-07T09:10:32.425Z,1007.30
2018-11-07T09:11:32.374Z,1007.26
2018-11-07T09:13:24.200Z,1007.34
2018-11-07T09:14:24.131Z,1007.34
2018-11-07T09:16:16.269Z,1007.35
2018-11-07T09:17:16.100Z,1007.35
2018-11-07T09:19:08.155Z,1007.41
2018-11-07T09:20:08.030Z,1007.37
2018-11-07T09:22:09.943Z,1007.36
2018-11-07T09:23:09.814Z,1007.35
2018-11-07T09:25:01.632Z,1007.41
2018-11-07T09:26:01.561Z,1007.40
2018-11-07T09:27:53.433Z,1007.42
2018-11-07T09:28:53.367Z,1007.44
2018-11-07T09:30:46.299Z,1007.49
2018-11-07T09:31:46.217Z,1007.48
2018-11-07T09:33:38.085Z,1007.49
2018-11-07T09:34:38.005Z,1007.49
2018-11-07T09:36:29.945Z,1007.49
2018-11-07T09:37:29.778Z,1007.47
2018-11-07T09:39:21.721Z,1007.52
2018-11-07T09:40:21.592Z,1007.55
2018-11-07T09:42:13.418Z,1007.57
2018-11-07T09:43:13.408Z,1007.57
2018-11-07T09:45:05.209Z,1007.58
2018-11-07T09:46:05.250Z,1007.54
2018-11-07T09:47:57.171Z,1007.50
2018-11-07T09:48:57.017Z,1007.54
2018-11-07T09:50:49.033Z,1007.52
2018-11-07T09:51:48.956Z,1007.45
2018-11-07T09:53:40.847Z,1007.48
2018-11-07T09:54:40.702Z,1007.49
2018-11-07T09:56:32.589Z,1007.55
2018-11-07T09:57:32.497Z,1007.50
2018-11-07T09:59:24.726Z,1007.56
2018-11-07T10:00:24.350Z,1007.55
2018-11-07T10:02:16.132Z,1007.57
2018-11-07T10:03:16.031Z,1007.56
2018-11-07T10:05:07.886Z,1007.60
2018-11-07T10:06:07.788Z,1007.64
2018-11-07T10:07:59.665Z,1007.69
2018-11-07T10:08:59.642Z,1007.67
2018-11-07T10:10:51.555Z,1007.64
2018-11-07T10:11:51.341Z,1007.63
2018-11-07T10:13:43.288Z,1007.61
2018-11-07T10:14:43.074Z,1007.63
2018-11-07T10:16:34.988Z,1007.69
2018-11-07T10:17:34.909Z,1007.67
2018-11-07T10:19:27.879Z,1007.69
2018-11-07T10:20:27.855Z,1007.71
2018-11-07T10:22:19.775Z,1007.74
2018-11-07T10:23:19.666Z,1007.78
2018-11-07T10:25:11.606Z,1007.74
2018-11-07T10:26:11.466Z,1007.73
2018-11-07T10:28:03.758Z,1007.75
2018-11-07T10:29:03.445Z,1007.72
2018-11-07T10:30:55.152Z,1007.72
2018-11-07T10:31:55.069Z,1007.73
2018-11-07T10:33:46.936Z,1007.66
2018-11-07T10:34:46.856Z,1007.66
2018-11-07T10:36:38.738Z,1007.63
2018-11-07T10:37:38.666Z,1007.64
2018-11-07T10:39:30.510Z,1007.63
2018-11-07T10:40:30.420Z,1007.64
2018-11-07T10:42:22.343Z,1007.61
2018-11-07T10:43:22.239Z,1007.59
2018-11-07T10:45:14.145Z,1007.55
2018-11-07T10:46:14.201Z,1007.54
2018-11-07T10:48:06.567Z,1007.48
2018-11-07T10:49:06.474Z,1007.56
2018-11-07T10:50:58.375Z,1007.49
2018-11-07T10:51:58.325Z,1007.49
2018-11-07T10:53:50.382Z,1007.52
2018-11-07T10:54:50.283Z,1007.49
2018-11-07T10:56:42.112Z,1007.51
2018-11-07T10:57:41.973Z,1007.50
2018-11-07T10:59:33.815Z,1007.53
2018-11-07T11:00:33.779Z,1007.61
2018-11-07T11:02:25.768Z,1007.60
2018-11-07T11:03:25.613Z,1007.59
2018-11-07T11:05:17.646Z,1007.61
2018-11-07T11:06:17.421Z,1007.63
2018-11-07T11:08:09.224Z,1007.69
2018-11-07T11:09:09.157Z,1007.65
2018-11-07T11:11:00.943Z,1007.66
2018-11-07T11:12:00.824Z,1007.67
2018-11-07T11:13:52.755Z,1007.62
2018-11-07T11:14:52.600Z,1007.66
2018-11-07T11:16:44.696Z,1007.72
2018-11-07T11:17:44.569Z,1007.71
2018-11-07T11:19:36.608Z,1007.69
2018-11-07T11:20:36.571Z,1007.69
2018-11-07T11:22:28.326Z,1007.68
2018-11-07T11:23:28.282Z,1007.62
2018-11-07T11:25:20.247Z,1007.64
2018-11-07T11:26:20.221Z,1007.69
2018-11-07T11:28:11.961Z,1007.72
2018-11-07T11:29:11.863Z,1007.75
2018-11-07T11:31:03.822Z,1007.72
2018-11-07T11:32:03.677Z,1007.75
2018-11-07T11:33:56.231Z,1007.68
2018-11-07T11:34:55.543Z,1007.67
2018-11-07T11:36:47.358Z,1007.65
2018-11-07T11:37:47.235Z,1007.62
2018-11-07T11:39:39.300Z,1007.63
2018-11-07T11:40:39.294Z,1007.65
2018-11-07T11:42:31.344Z,1007.62
2018-11-07T11:43:31.142Z,1007.63
2018-11-07T11:45:23.003Z,1007.70
2018-11-07T11:46:22.941Z,1007.73
2018-11-07T11:48:14.992Z,1007.69
2018-11-07T11:49:15.002Z,1007.69
2018-11-07T11:51:06.856Z,1007.69
2018-11-07T11:52:06.722Z,1007.72
2018-11-07T11:53:58.685Z,1007.71
2018-11-07T11:54:58.552Z,1007.71
2018-11-07T11:56:50.537Z,1007.75
2018-11-07T11:57:50.476Z,1007.73
2018-11-07T11:59:43.651Z,1007.70
2018-11-07T12:00:43.293Z,1007.69
2018-11-07T12:02:35.241Z,1007.70
2018-11-07T12:03:35.140Z,1007.70
2018-11-07T12:05:27.276Z,1007.73
2018-11-07T12:06:27.309Z,1007.75
2018-11-07T12:08:19.233Z,1007.75
2018-11-07T12:09:19.132Z,1007.75
2018-11-07T12:11:11.172Z,1007.78
2018-11-07T12:12:11.186Z,1007.77
2018-11-07T12:14:02.893Z,1007.77
2018-11-07T12:15:03.036Z,1007.81
2018-11-07T12:16:54.724Z,1007.77
2018-11-07T12:17:54.743Z,1007.79
2018-11-07T12:19:46.641Z,1007.78
2018-11-07T12:20:46.502Z,1007.77
2018-11-07T12:22:38.574Z,1007.75
2018-11-07T12:23:38.390Z,1007.73
2018-11-07T12:25:30.386Z,1007.66
2018-11-07T12:26:30.392Z,1007.66
2018-11-07T12:28:22.325Z,1007.70
2018-11-07T12:29:22.270Z,1007.65
2018-11-07T12:31:14.171Z,1007.63
2018-11-07T12:32:14.042Z,1007.66
2018-11-07T12:34:06.976Z,1007.65
2018-11-07T12:35:06.864Z,1007.61
2018-11-07T12:36:58.830Z,1007.65
2018-11-07T12:37:58.670Z,1007.71
2018-11-07T12:39:50.623Z,1007.71
2018-11-07T12:40:50.567Z,1007.70
2018-11-07T12:42:42.631Z,1007.65
2018-11-07T12:43:42.486Z,1007.70
2018-11-07T12:45:34.335Z,1007.68
2018-11-07T12:46:34.359Z,1007.70
2018-11-07T12:48:26.066Z,1007.71
2018-11-07T12:49:25.956Z,1007.71
2018-11-07T12:51:17.792Z,1007.66
2018-11-07T12:52:17.779Z,1007.65
2018-11-07T12:54:09.494Z,1007.69
2018-11-07T12:55:09.432Z,1007.64
2018-11-07T12:57:01.513Z,1007.67
2018-11-07T12:58:01.470Z,1007.65
2018-11-07T12:59:53.183Z,1007.66
2018-11-07T13:00:53.055Z,1007.63
2018-11-07T13:02:44.933Z,1007.67
2018-11-07T13:03:45.026Z,1007.68
2018-11-07T13:05:36.839Z,1007.72
2018-11-07T13:06:36.690Z,1007.72
2018-11-07T13:08:29.353Z,1007.71
2018-11-07T13:09:29.039Z,1007.72
2018-11-07T13:11:21.099Z,1007.66
2018-11-07T13:12:21.033Z,1007.71
2018-11-07T13:14:12.954Z,1007.72
2018-11-07T13:15:12.840Z,1007.75
2018-11-07T13:17:04.772Z,1007.76
2018-11-07T13:18:04.744Z,1007.74
2018-11-07T13:19:56.563Z,1007.74
2018-11-07T13:20:56.566Z,1007.75
2018-11-07T13:22:48.522Z,1007.81
2018-11-07T13:23:48.495Z,1007.82
2018-11-07T13:25:40.505Z,1007.86
2018-11-07T13:26:40.364Z,1007.81
2018-11-07T13:28:32.512Z,1007.83
2018-11-07T13:29:32.204Z,1007.83
2018-11-07T13:31:24.109Z,1007.81
2018-11-07T13:32:24.049Z,1007.79
2018-11-07T13:34:16.123Z,1007.79
2018-11-07T13:35:15.930Z,1007.81
2018-11-07T13:37:07.953Z,1007.80
2018-11-07T13:38:08.028Z,1007.79
2018-11-07T13:39:59.565Z,1007.79
2018-11-07T13:40:59.532Z,1007.81
2018-11-07T13:42:51.466Z,1007.83
2018-11-07T13:43:51.472Z,1007.82
2018-11-07T13:45:44.328Z,1007.89
2018-11-07T13:46:44.196Z,1007.89
2018-11-07T13:48:37.113Z,1007.91
2018-11-07T13:49:37.026Z,1007.92
2018-11-07T13:51:28.944Z,1007.92
2018-11-07T13:52:28.871Z,1007.91
2018-11-07T13:54:20.754Z,1007.96
2018-11-07T13:55:20.724Z,1007.99
2018-11-07T13:57:13.686Z,1008.01
2018-11-07T13:58:13.516Z,1008.03
2018-11-07T14:00:06.436Z,1008.06
2018-11-07T14:01:06.338Z,1008.09
2018-11-07T14:02:58.377Z,1008.07
2018-11-07T14:03:58.293Z,1008.06
2018-11-07T14:05:50.359Z,1008.05
2018-11-07T14:06:50.104Z,1008.03
2018-11-07T14:08:42.342Z,1008.08
2018-11-07T14:09:42.227Z,1008.10
2018-11-07T14:11:35.121Z,1008.11
2018-11-07T14:12:35.065Z,1008.11
2018-11-07T14:14:27.057Z,1008.11
2018-11-07T14:15:26.921Z,1008.14
2018-11-07T14:17:18.860Z,1008.12
2018-11-07T14:18:18.788Z,1008.10
2018-11-07T14:20:10.704Z,1008.11
2018-11-07T14:21:10.710Z,1008.11
2018-11-07T14:23:02.675Z,1008.09
2018-11-07T14:24:02.487Z,1008.08
2018-11-07T14:25:54.386Z,1008.10
2018-11-07T14:26:54.320Z,1008.07
2018-11-07T14:28:46.257Z,1008.13
2018-11-07T14:29:46.068Z,1008.13
2018-11-07T14:31:38.186Z,1008.16
2018-11-07T14:32:37.954Z,1008.13
2018-11-07T14:34:29.861Z,1008.18
2018-11-07T14:35:29.856Z,1008.18
2018-11-07T14:37:21.719Z,1008.18
2018-11-07T14:38:21.533Z,1008.14
2018-11-07T14:40:13.558Z,1008.14
2018-11-07T14:41:13.401Z,1008.21
2018-11-07T14:43:06.292Z,1008.22
2018-11-07T14:44:06.197Z,1008.27
2018-11-07T14:45:59.136Z,1008.26
2018-11-07T14:46:58.995Z,1008.25
2018-11-07T14:48:51.054Z,1008.27
2018-11-07T14:49:51.019Z,1008.26
2018-11-07T14:51:43.888Z,1008.28
2018-11-07T14:52:43.761Z,1008.25
2018-11-07T14:54:36.710Z,1008.22
2018-11-07T14:55:36.690Z,1008.24
2018-11-07T14:57:28.486Z,1008.23
2018-11-07T14:58:28.360Z,1008.21
2018-11-07T15:00:20.514Z,1008.25
2018-11-07T15:01:20.463Z,1008.31
2018-11-07T15:03:12.348Z,1008.32
2018-11-07T15:04:12.149Z,1008.31
2018-11-07T15:06:04.150Z,1008.33
2018-11-07T15:07:04.068Z,1008.31
2018-11-07T15:08:56.076Z,1008.28
2018-11-07T15:09:55.892Z,1008.26
2018-11-07T15:11:48.006Z,1008.27
2018-11-07T15:12:47.759Z,1008.25
2018-11-07T15:14:39.576Z,1008.31
2018-11-07T15:15:39.698Z,1008.30
2018-11-07T15:17:31.361Z,1008.32
2018-11-07T15:18:31.310Z,1008.31
2018-11-07T15:20:23.088Z,1008.30
2018-11-07T15:21:23.055Z,1008.28
2018-11-07T15:23:14.892Z,1008.29
2018-11-07T15:24:14.773Z,1008.30
2018-11-07T15:26:06.769Z,1008.33
2018-11-07T15:27:06.603Z,1008.34
2018-11-07T15:28:58.505Z,1008.35
2018-11-07T15:29:58.424Z,1008.34
2018-11-07T15:31:51.456Z,1008.37
2018-11-07T15:32:51.345Z,1008.40
2018-11-07T15:34:43.427Z,1008.44
2018-11-07T15:35:43.129Z,1008.45
2018-11-07T15:37:35.112Z,1008.46
2018-11-07T15:38:35.015Z,1008.41
2018-11-07T15:40:26.918Z,1008.37
2018-11-07T15:41:26.829Z,1008.39
2018-11-07T15:43:18.810Z,1008.39
2018-11-07T15:44:18.864Z,1008.37
2018-11-07T15:46:10.756Z,1008.40
2018-11-07T15:47:10.810Z,1008.42
2018-11-07T15:49:02.736Z,1008.37
2018-11-07T15:50:02.574Z,1008.38
2018-11-07T15:51:54.411Z,1008.40
2018-11-07T15:52:54.375Z,1008.45
2018-11-07T15:54:46.260Z,1008.47
2018-11-07T15:55:46.304Z,1008.51
2018-11-07T15:57:38.671Z,1008.57
2018-11-07T15:58:38.048Z,1008.57
2018-11-07T16:00:29.953Z,1008.56
2018-11-07T16:01:29.881Z,1008.53
2018-11-07T16:03:21.875Z,1008.53
2018-11-07T16:04:21.794Z,1008.58
2018-11-07T16:06:13.830Z,1008.52
2018-11-07T16:07:13.692Z,1008.52
2018-11-07T16:09:05.872Z,1008.50
2018-11-07T16:10:05.783Z,1008.52
2018-11-07T16:11:58.715Z,1008.56
2018-11-07T16:12:58.701Z,1008.56
2018-11-07T16:14:50.698Z,1008.59
2018-11-07T16:15:50.508Z,1008.60
2018-11-07T16:17:43.484Z,1008.59
2018-11-07T16:18:43.350Z,1008.58
2018-11-07T16:20:35.782Z,1008.64
2018-11-07T16:21:35.372Z,1008.59
2018-11-07T16:23:28.038Z,1008.68
2018-11-07T16:24:27.547Z,1008.67
2018-11-07T16:26:19.405Z,1008.71
2018-11-07T16:27:19.223Z,1008.67
2018-11-07T16:29:11.075Z,1008.66
2018-11-07T16:30:11.328Z,1008.66
2018-11-07T16:32:03.380Z,1008.69
2018-11-07T16:33:02.856Z,1008.71
2018-11-07T16:34:55.037Z,1008.77
2018-11-07T16:35:54.681Z,1008.76
2018-11-07T16:37:46.891Z,1008.71
2018-11-07T16:38:46.835Z,1008.68
2018-11-07T16:40:38.822Z,1008.70
2018-11-07T16:41:38.814Z,1008.76
2018-11-07T16:43:30.637Z,1008.76
2018-11-07T16:44:30.466Z,1008.79
2018-11-07T16:46:23.408Z,1008.84
2018-11-07T16:47:23.311Z,1008.84
2018-11-07T16:49:15.185Z,1008.82
2018-11-07T16:50:15.179Z,1008.84
2018-11-07T16:52:07.178Z,1008.84
2018-11-07T16:53:07.121Z,1008.83
2018-11-07T16:54:58.984Z,1008.84
2018-11-07T16:55:58.695Z,1008.84
2018-11-07T16:57:50.680Z,1008.91
2018-11-07T16:58:50.767Z,1008.91
2018-11-07T17:00:43.014Z,1008.94
2018-11-07T17:01:42.429Z,1008.96
2018-11-07T17:03:34.327Z,1008.98
2018-11-07T17:04:34.142Z,1008.99
2018-11-07T17:06:27.019Z,1008.98
2018-11-07T17:07:26.888Z,1008.95
2018-11-07T17:09:18.897Z,1009.00
2018-11-07T17:10:18.689Z,1008.98
2018-11-07T17:12:10.570Z,1008.99
2018-11-07T17:13:10.430Z,1009.01
2018-11-07T17:15:02.416Z,1009.02
2018-11-07T17:16:02.300Z,1009.01
2018-11-07T17:17:54.090Z,1008.97
2018-11-07T17:18:54.068Z,1008.98
2018-11-07T17:20:45.957Z,1008.95